sensor_id;sensor_type;location;lat;lon;timestamp;P1;durP1;ratioP1;P2;durP2;ratioP2
351;SDS011;164;50.784;6.496;2024-03-23T00:55:44;4.22;;;1.92;;
351;SDS011;164;50.784;6.496;2024-03-23T00:58:11;4.38;;;2.63;;
351;SDS011;164;50.784;6.496;2024-03-23T01:00:37;5.80;;;2.25;;
351;SDS011;164;50.784;6.496;2024-03-23T01:03:05;4.47;;;2.83;;
351;SDS011;164;50.784;6.496;2024-03-23T01:05:31;6.47;;;3.13;;
351;SDS011;164;50.784;6.496;2024-03-23T01:07:58;4.35;;;2.88;;
351;SDS011;164;50.784;6.496;2024-03-23T01:10:25;7.72;;;4.05;;
351;SDS011;164;50.784;6.496;2024-03-23T01:12:53;4.53;;;2.88;;
351;SDS011;164;50.784;6.496;2024-03-23T01:15:20;9.05;;;3.35;;
351;SDS011;164;50.784;6.496;2024-03-23T01:17:47;5.10;;;2.50;;
351;SDS011;164;50.784;6.496;2024-03-23T01:20:13;3.28;;;2.70;;
351;SDS011;164;50.784;6.496;2024-03-23T01:22:41;10.20;;;4.10;;
351;SDS011;164;50.784;6.496;2024-03-23T01:25:07;6.20;;;3.00;;
351;SDS011;164;50.784;6.496;2024-03-23T01:27:35;6.68;;;3.47;;
351;SDS011;164;50.784;6.496;2024-03-23T01:30:02;5.78;;;3.30;;
351;SDS011;164;50.784;6.496;2024-03-23T01:32:30;5.07;;;3.75;;
351;SDS011;164;50.784;6.496;2024-03-23T01:34:56;6.93;;;3.97;;
351;SDS011;164;50.784;6.496;2024-03-23T01:37:23;4.57;;;2.50;;
351;SDS011;164;50.784;6.496;2024-03-23T01:39:49;4.47;;;3.03;;
351;SDS011;164;50.784;6.496;2024-03-23T01:42:17;5.00;;;3.25;;
351;SDS011;164;50.784;6.496;2024-03-23T01:44:43;4.60;;;2.67;;
351;SDS011;164;50.784;6.496;2024-03-23T01:47:12;4.35;;;3.05;;
351;SDS011;164;50.784;6.496;2024-03-23T01:49:38;4.60;;;2.38;;
351;SDS011;164;50.784;6.496;2024-03-23T01:52:06;3.67;;;2.25;;
351;SDS011;164;50.784;6.496;2024-03-23T01:54:32;4.72;;;2.50;;
351;SDS011;164;50.784;6.496;2024-03-23T01:57:00;2.38;;;1.42;;
351;SDS011;164;50.784;6.496;2024-03-23T01:59:27;1.23;;;1.10;;
351;SDS011;164;50.784;6.496;2024-03-23T02:01:54;3.53;;;2.03;;
351;SDS011;164;50.784;6.496;2024-03-23T02:04:22;2.05;;;1.10;;
351;SDS011;164;50.784;6.496;2024-03-23T02:06:49;3.53;;;1.80;;
351;SDS011;164;50.784;6.496;2024-03-23T02:09:16;2.17;;;1.40;;
351;SDS011;164;50.784;6.496;2024-03-23T02:11:43;7.75;;;1.73;;
351;SDS011;164;50.784;6.496;2024-03-23T02:14:09;4.15;;;1.40;;
351;SDS011;164;50.784;6.496;2024-03-23T02:16:37;4.45;;;1.85;;
351;SDS011;164;50.784;6.496;2024-03-23T02:19:03;1.38;;;1.27;;
351;SDS011;164;50.784;6.496;2024-03-23T02:21:32;4.63;;;1.50;;
351;SDS011;164;50.784;6.496;2024-03-23T02:24:00;3.35;;;1.10;;
351;SDS011;164;50.784;6.496;2024-03-23T02:26:28;2.38;;;1.67;;
351;SDS011;164;50.784;6.496;2024-03-23T02:28:54;2.20;;;1.85;;
351;SDS011;164;50.784;6.496;2024-03-23T02:31:22;5.07;;;2.70;;
351;SDS011;164;50.784;6.496;2024-03-23T02:33:48;1.67;;;1.27;;
351;SDS011;164;50.784;6.496;2024-03-23T02:36:15;6.53;;;1.48;;
351;SDS011;164;50.784;6.496;2024-03-23T02:38:42;1.58;;;1.42;;
351;SDS011;164;50.784;6.496;2024-03-23T02:41:11;2.75;;;1.42;;
351;SDS011;164;50.784;6.496;2024-03-23T02:43:39;4.43;;;1.33;;
351;SDS011;164;50.784;6.496;2024-03-23T02:46:06;2.55;;;1.60;;
351;SDS011;164;50.784;6.496;2024-03-23T02:48:32;1.98;;;1.55;;
351;SDS011;164;50.784;6.496;2024-03-23T02:51:00;2.35;;;1.65;;
351;SDS011;164;50.784;6.496;2024-03-23T02:53:26;2.85;;;1.55;;
351;SDS011;164;50.784;6.496;2024-03-23T02:55:53;2.80;;;1.00;;
351;SDS011;164;50.784;6.496;2024-03-23T02:58:21;6.15;;;1.35;;
351;SDS011;164;50.784;6.496;2024-03-23T03:00:48;1.73;;;0.90;;
351;SDS011;164;50.784;6.496;2024-03-23T03:03:14;3.53;;;1.17;;
351;SDS011;164;50.784;6.496;2024-03-23T03:05:42;2.30;;;1.40;;
351;SDS011;164;50.784;6.496;2024-03-23T03:08:08;5.20;;;1.63;;
351;SDS011;164;50.784;6.496;2024-03-23T03:10:35;4.00;;;1.50;;
351;SDS011;164;50.784;6.496;2024-03-23T03:13:01;3.45;;;1.00;;
351;SDS011;164;50.784;6.496;2024-03-23T03:15:30;1.88;;;1.60;;
351;SDS011;164;50.784;6.496;2024-03-23T03:17:57;1.48;;;1.15;;
351;SDS011;164;50.784;6.496;2024-03-23T03:20:24;2.70;;;1.67;;
351;SDS011;164;50.784;6.496;2024-03-23T03:22:50;5.57;;;1.05;;
351;SDS011;164;50.784;6.496;2024-03-23T03:25:18;4.88;;;1.65;;
351;SDS011;164;50.784;6.496;2024-03-23T03:27:45;2.53;;;1.00;;
351;SDS011;164;50.784;6.496;2024-03-23T03:30:12;2.28;;;0.75;;
351;SDS011;164;50.784;6.496;2024-03-23T03:32:40;3.70;;;1.35;;
351;SDS011;164;50.784;6.496;2024-03-23T03:35:08;1.45;;;1.02;;
351;SDS011;164;50.784;6.496;2024-03-23T03:37:34;1.77;;;1.02;;
351;SDS011;164;50.784;6.496;2024-03-23T03:40:02;4.03;;;1.48;;
351;SDS011;164;50.784;6.496;2024-03-23T03:42:33;1.10;;;0.95;;
351;SDS011;164;50.784;6.496;2024-03-23T03:45:01;1.20;;;0.85;;
351;SDS011;164;50.784;6.496;2024-03-23T03:47:29;1.48;;;1.13;;
351;SDS011;164;50.784;6.496;2024-03-23T03:49:58;2.00;;;1.02;;
351;SDS011;164;50.784;6.496;2024-03-23T03:52:24;2.28;;;0.90;;
351;SDS011;164;50.784;6.496;2024-03-23T03:54:55;4.72;;;1.45;;
351;SDS011;164;50.784;6.496;2024-03-23T03:57:21;2.17;;;0.90;;
351;SDS011;164;50.784;6.496;2024-03-23T03:59:49;2.42;;;1.25;;
351;SDS011;164;50.784;6.496;2024-03-23T04:02:15;2.38;;;1.38;;
351;SDS011;164;50.784;6.496;2024-03-23T04:04:42;3.20;;;1.30;;
351;SDS011;164;50.784;6.496;2024-03-23T04:07:10;3.35;;;1.30;;
351;SDS011;164;50.784;6.496;2024-03-23T04:09:37;2.72;;;1.33;;
351;SDS011;164;50.784;6.496;2024-03-23T04:12:04;4.05;;;2.53;;
351;SDS011;164;50.784;6.496;2024-03-23T04:14:31;4.20;;;1.80;;
351;SDS011;164;50.784;6.496;2024-03-23T04:16:57;5.28;;;1.25;;
351;SDS011;164;50.784;6.496;2024-03-23T04:19:25;1.85;;;0.95;;
351;SDS011;164;50.784;6.496;2024-03-23T04:21:51;3.90;;;1.42;;
351;SDS011;164;50.784;6.496;2024-03-23T04:24:20;4.55;;;1.50;;
351;SDS011;164;50.784;6.496;2024-03-23T04:26:47;1.90;;;1.17;;
351;SDS011;164;50.784;6.496;2024-03-23T04:29:15;1.48;;;1.20;;
351;SDS011;164;50.784;6.496;2024-03-23T04:31:41;3.33;;;1.42;;
351;SDS011;164;50.784;6.496;2024-03-23T04:34:08;2.85;;;0.90;;
351;SDS011;164;50.784;6.496;2024-03-23T04:36:35;2.75;;;0.85;;
351;SDS011;164;50.784;6.496;2024-03-23T04:39:02;3.47;;;2.60;;
351;SDS011;164;50.784;6.496;2024-03-23T04:41:31;2.63;;;0.85;;
351;SDS011;164;50.784;6.496;2024-03-23T04:43:58;0.80;;;0.75;;
351;SDS011;164;50.784;6.496;2024-03-23T04:46:26;1.75;;;0.90;;
351;SDS011;164;50.784;6.496;2024-03-23T04:48:53;2.35;;;1.00;;
351;SDS011;164;50.784;6.496;2024-03-23T04:51:22;7.30;;;1.35;;
351;SDS011;164;50.784;6.496;2024-03-23T04:53:49;6.63;;;1.60;;
351;SDS011;164;50.784;6.496;2024-03-23T04:56:15;2.40;;;1.25;;
351;SDS011;164;50.784;6.496;2024-03-23T04:58:45;2.67;;;0.90;;
351;SDS011;164;50.784;6.496;2024-03-23T05:01:11;4.05;;;1.60;;
351;SDS011;164;50.784;6.496;2024-03-23T05:03:38;1.38;;;1.08;;
351;SDS011;164;50.784;6.496;2024-03-23T05:06:05;6.43;;;1.63;;
351;SDS011;164;50.784;6.496;2024-03-23T05:08:33;1.67;;;1.55;;
351;SDS011;164;50.784;6.496;2024-03-23T05:10:59;2.55;;;1.35;;
351;SDS011;164;50.784;6.496;2024-03-23T05:13:26;3.33;;;1.85;;
351;SDS011;164;50.784;6.496;2024-03-23T05:15:54;2.70;;;1.45;;
351;SDS011;164;50.784;6.496;2024-03-23T05:18:22;5.15;;;1.88;;
351;SDS011;164;50.784;6.496;2024-03-23T05:20:55;4.57;;;1.40;;
351;SDS011;164;50.784;6.496;2024-03-23T05:23:22;2.75;;;1.50;;
351;SDS011;164;50.784;6.496;2024-03-23T05:25:48;3.50;;;1.65;;
351;SDS011;164;50.784;6.496;2024-03-23T05:28:16;4.82;;;1.73;;
351;SDS011;164;50.784;6.496;2024-03-23T05:30:43;7.47;;;1.98;;
351;SDS011;164;50.784;6.496;2024-03-23T05:33:11;4.32;;;1.63;;
351;SDS011;164;50.784;6.496;2024-03-23T05:35:38;4.72;;;1.92;;
351;SDS011;164;50.784;6.496;2024-03-23T05:38:05;4.30;;;1.45;;
351;SDS011;164;50.784;6.496;2024-03-23T05:40:31;5.10;;;1.38;;
351;SDS011;164;50.784;6.496;2024-03-23T05:43:02;3.90;;;1.10;;
351;SDS011;164;50.784;6.496;2024-03-23T05:45:29;2.80;;;1.38;;
351;SDS011;164;50.784;6.496;2024-03-23T05:47:56;2.13;;;1.38;;
351;SDS011;164;50.784;6.496;2024-03-23T05:50:24;3.10;;;1.30;;
351;SDS011;164;50.784;6.496;2024-03-23T05:52:51;3.10;;;1.83;;
351;SDS011;164;50.784;6.496;2024-03-23T05:55:18;3.53;;;1.20;;
351;SDS011;164;50.784;6.496;2024-03-23T05:57:44;1.42;;;1.35;;
351;SDS011;164;50.784;6.496;2024-03-23T06:00:12;5.03;;;1.75;;
351;SDS011;164;50.784;6.496;2024-03-23T06:02:41;4.25;;;1.60;;
351;SDS011;164;50.784;6.496;2024-03-23T06:05:09;7.93;;;2.25;;
351;SDS011;164;50.784;6.496;2024-03-23T06:07:37;3.53;;;1.92;;
351;SDS011;164;50.784;6.496;2024-03-23T06:10:04;5.68;;;1.98;;
351;SDS011;164;50.784;6.496;2024-03-23T06:12:31;4.53;;;2.55;;
351;SDS011;164;50.784;6.496;2024-03-23T06:14:58;1.63;;;1.25;;
351;SDS011;164;50.784;6.496;2024-03-23T06:17:25;4.18;;;1.55;;
351;SDS011;164;50.784;6.496;2024-03-23T06:19:52;1.85;;;1.48;;
351;SDS011;164;50.784;6.496;2024-03-23T06:22:18;3.38;;;1.45;;
351;SDS011;164;50.784;6.496;2024-03-23T06:24:47;3.85;;;2.17;;
351;SDS011;164;50.784;6.496;2024-03-23T06:27:13;2.20;;;1.90;;
351;SDS011;164;50.784;6.496;2024-03-23T06:29:41;3.35;;;2.80;;
351;SDS011;164;50.784;6.496;2024-03-23T06:32:07;7.45;;;3.17;;
351;SDS011;164;50.784;6.496;2024-03-23T06:34:34;4.72;;;2.80;;
351;SDS011;164;50.784;6.496;2024-03-23T06:37:00;8.90;;;2.80;;
351;SDS011;164;50.784;6.496;2024-03-23T06:39:28;4.60;;;2.78;;
351;SDS011;164;50.784;6.496;2024-03-23T06:41:56;6.93;;;3.38;;
351;SDS011;164;50.784;6.496;2024-03-23T06:44:24;4.93;;;3.38;;
351;SDS011;164;50.784;6.496;2024-03-23T06:46:50;4.10;;;3.67;;
351;SDS011;164;50.784;6.496;2024-03-23T06:49:17;5.55;;;3.25;;
351;SDS011;164;50.784;6.496;2024-03-23T06:51:44;3.67;;;3.22;;
351;SDS011;164;50.784;6.496;2024-03-23T06:54:11;7.13;;;4.13;;
351;SDS011;164;50.784;6.496;2024-03-23T06:56:38;6.07;;;3.90;;
351;SDS011;164;50.784;6.496;2024-03-23T06:59:07;6.32;;;3.88;;
351;SDS011;164;50.784;6.496;2024-03-23T07:01:33;7.35;;;5.95;;
351;SDS011;164;50.784;6.496;2024-03-23T07:04:01;5.32;;;3.70;;
351;SDS011;164;50.784;6.496;2024-03-23T07:06:29;5.78;;;4.35;;
351;SDS011;164;50.784;6.496;2024-03-23T07:08:56;8.02;;;5.18;;
351;SDS011;164;50.784;6.496;2024-03-23T07:11:22;7.50;;;4.60;;
351;SDS011;164;50.784;6.496;2024-03-23T07:13:50;7.75;;;5.00;;
351;SDS011;164;50.784;6.496;2024-03-23T07:16:18;12.93;;;6.38;;
351;SDS011;164;50.784;6.496;2024-03-23T07:18:45;10.15;;;5.60;;
351;SDS011;164;50.784;6.496;2024-03-23T07:21:11;7.80;;;5.40;;
351;SDS011;164;50.784;6.496;2024-03-23T07:23:41;8.55;;;5.72;;
351;SDS011;164;50.784;6.496;2024-03-23T07:26:10;8.13;;;6.63;;
351;SDS011;164;50.784;6.496;2024-03-23T07:28:37;12.60;;;4.65;;
351;SDS011;164;50.784;6.496;2024-03-23T07:31:08;5.13;;;1.98;;
351;SDS011;164;50.784;6.496;2024-03-23T07:33:41;3.92;;;1.33;;
351;SDS011;164;50.784;6.496;2024-03-23T07:36:07;1.33;;;1.00;;
351;SDS011;164;50.784;6.496;2024-03-23T07:38:34;1.33;;;1.25;;
351;SDS011;164;50.784;6.496;2024-03-23T07:41:04;4.55;;;1.13;;
351;SDS011;164;50.784;6.496;2024-03-23T07:43:32;1.95;;;0.88;;
351;SDS011;164;50.784;6.496;2024-03-23T07:45:58;2.95;;;1.30;;
351;SDS011;164;50.784;6.496;2024-03-23T07:48:26;3.20;;;1.50;;
351;SDS011;164;50.784;6.496;2024-03-23T07:51:00;1.48;;;1.00;;
351;SDS011;164;50.784;6.496;2024-03-23T07:53:28;4.50;;;1.58;;
351;SDS011;164;50.784;6.496;2024-03-23T07:55:54;3.88;;;2.05;;
351;SDS011;164;50.784;6.496;2024-03-23T07:58:22;4.05;;;1.55;;
351;SDS011;164;50.784;6.496;2024-03-23T08:00:48;3.35;;;2.25;;
351;SDS011;164;50.784;6.496;2024-03-23T08:03:15;8.15;;;3.83;;
351;SDS011;164;50.784;6.496;2024-03-23T08:05:42;4.82;;;4.00;;
351;SDS011;164;50.784;6.496;2024-03-23T08:08:11;9.23;;;4.97;;
351;SDS011;164;50.784;6.496;2024-03-23T08:10:37;4.88;;;4.38;;
351;SDS011;164;50.784;6.496;2024-03-23T08:13:05;10.25;;;5.30;;
351;SDS011;164;50.784;6.496;2024-03-23T08:15:31;8.75;;;5.78;;
351;SDS011;164;50.784;6.496;2024-03-23T08:17:59;7.75;;;5.90;;
351;SDS011;164;50.784;6.496;2024-03-23T08:20:26;8.43;;;5.10;;
351;SDS011;164;50.784;6.496;2024-03-23T08:22:55;6.68;;;4.78;;
351;SDS011;164;50.784;6.496;2024-03-23T08:25:42;10.00;;;4.80;;
351;SDS011;164;50.784;6.496;2024-03-23T08:28:11;6.15;;;3.50;;
351;SDS011;164;50.784;6.496;2024-03-23T08:30:38;5.38;;;2.92;;
351;SDS011;164;50.784;6.496;2024-03-23T08:33:06;5.60;;;3.22;;
351;SDS011;164;50.784;6.496;2024-03-23T08:35:32;4.72;;;2.90;;
351;SDS011;164;50.784;6.496;2024-03-23T08:38:01;4.57;;;2.92;;
351;SDS011;164;50.784;6.496;2024-03-23T08:40:27;6.60;;;3.35;;
351;SDS011;164;50.784;6.496;2024-03-23T08:42:56;9.30;;;3.33;;
351;SDS011;164;50.784;6.496;2024-03-23T08:45:24;2.03;;;1.80;;
351;SDS011;164;50.784;6.496;2024-03-23T08:47:51;5.22;;;1.95;;
351;SDS011;164;50.784;6.496;2024-03-23T08:50:17;2.65;;;1.98;;
351;SDS011;164;50.784;6.496;2024-03-23T08:52:46;4.35;;;2.00;;
351;SDS011;164;50.784;6.496;2024-03-23T08:55:13;2.75;;;1.80;;
351;SDS011;164;50.784;6.496;2024-03-23T08:57:40;3.17;;;2.03;;
351;SDS011;164;50.784;6.496;2024-03-23T09:00:08;4.65;;;2.90;;
351;SDS011;164;50.784;6.496;2024-03-23T09:02:36;2.05;;;1.08;;
351;SDS011;164;50.784;6.496;2024-03-23T09:05:03;7.30;;;1.95;;
351;SDS011;164;50.784;6.496;2024-03-23T09:07:30;3.42;;;2.20;;
351;SDS011;164;50.784;6.496;2024-03-23T09:09:56;3.78;;;1.70;;
351;SDS011;164;50.784;6.496;2024-03-23T09:12:24;7.50;;;1.65;;
351;SDS011;164;50.784;6.496;2024-03-23T09:14:50;1.05;;;0.95;;
351;SDS011;164;50.784;6.496;2024-03-23T09:17:20;3.38;;;1.80;;
351;SDS011;164;50.784;6.496;2024-03-23T09:19:46;4.18;;;1.60;;
351;SDS011;164;50.784;6.496;2024-03-23T09:22:13;3.55;;;1.40;;
351;SDS011;164;50.784;6.496;2024-03-23T09:24:39;5.07;;;1.48;;
351;SDS011;164;50.784;6.496;2024-03-23T09:27:07;3.33;;;1.25;;
351;SDS011;164;50.784;6.496;2024-03-23T09:29:33;1.73;;;1.40;;
351;SDS011;164;50.784;6.496;2024-03-23T09:32:00;4.63;;;1.40;;
351;SDS011;164;50.784;6.496;2024-03-23T09:34:28;1.30;;;1.20;;
351;SDS011;164;50.784;6.496;2024-03-23T09:36:55;5.40;;;2.90;;
351;SDS011;164;50.784;6.496;2024-03-23T09:39:21;2.95;;;1.60;;
351;SDS011;164;50.784;6.496;2024-03-23T09:41:48;2.25;;;1.20;;
351;SDS011;164;50.784;6.496;2024-03-23T09:44:14;4.60;;;2.03;;
351;SDS011;164;50.784;6.496;2024-03-23T09:46:41;3.35;;;1.20;;
351;SDS011;164;50.784;6.496;2024-03-23T09:49:08;1.42;;;1.13;;
351;SDS011;164;50.784;6.496;2024-03-23T09:51:37;1.60;;;1.10;;
351;SDS011;164;50.784;6.496;2024-03-23T09:54:03;2.25;;;1.35;;
351;SDS011;164;50.784;6.496;2024-03-23T09:56:30;2.88;;;0.88;;
351;SDS011;164;50.784;6.496;2024-03-23T09:59:00;1.08;;;0.85;;
351;SDS011;164;50.784;6.496;2024-03-23T10:01:29;1.65;;;0.90;;
351;SDS011;164;50.784;6.496;2024-03-23T10:03:55;1.25;;;0.80;;
351;SDS011;164;50.784;6.496;2024-03-23T10:06:22;1.05;;;0.50;;
351;SDS011;164;50.784;6.496;2024-03-23T10:08:51;1.50;;;0.73;;
351;SDS011;164;50.784;6.496;2024-03-23T10:11:19;2.15;;;0.77;;
351;SDS011;164;50.784;6.496;2024-03-23T10:13:46;3.78;;;0.60;;
351;SDS011;164;50.784;6.496;2024-03-23T10:16:20;1.60;;;0.82;;
351;SDS011;164;50.784;6.496;2024-03-23T10:19:02;2.45;;;0.50;;
351;SDS011;164;50.784;6.496;2024-03-23T10:21:30;2.28;;;0.95;;
351;SDS011;164;50.784;6.496;2024-03-23T10:23:56;1.50;;;0.73;;
351;SDS011;164;50.784;6.496;2024-03-23T10:26:24;0.80;;;0.50;;
351;SDS011;164;50.784;6.496;2024-03-23T10:28:54;1.08;;;1.00;;
351;SDS011;164;50.784;6.496;2024-03-23T10:31:24;4.57;;;1.13;;
351;SDS011;164;50.784;6.496;2024-03-23T10:33:50;3.25;;;0.70;;
351;SDS011;164;50.784;6.496;2024-03-23T10:36:21;1.65;;;1.00;;
351;SDS011;164;50.784;6.496;2024-03-23T10:38:47;1.60;;;1.27;;
351;SDS011;164;50.784;6.496;2024-03-23T10:41:16;3.78;;;1.23;;
351;SDS011;164;50.784;6.496;2024-03-23T10:43:43;5.15;;;1.23;;
351;SDS011;164;50.784;6.496;2024-03-23T10:46:11;2.90;;;0.85;;
351;SDS011;164;50.784;6.496;2024-03-23T10:48:38;1.55;;;1.15;;
351;SDS011;164;50.784;6.496;2024-03-23T10:51:05;2.65;;;2.20;;
351;SDS011;164;50.784;6.496;2024-03-23T10:53:34;2.15;;;1.73;;
351;SDS011;164;50.784;6.496;2024-03-23T10:56:03;2.63;;;2.30;;
351;SDS011;164;50.784;6.496;2024-03-23T10:58:31;5.82;;;2.50;;
351;SDS011;164;50.784;6.496;2024-03-23T11:00:58;3.75;;;2.30;;
351;SDS011;164;50.784;6.496;2024-03-23T11:03:31;6.25;;;1.55;;
351;SDS011;164;50.784;6.496;2024-03-23T11:05:59;2.15;;;1.35;;
351;SDS011;164;50.784;6.496;2024-03-23T11:08:29;2.15;;;1.92;;
351;SDS011;164;50.784;6.496;2024-03-23T11:13:50;1.70;;;1.60;;
351;SDS011;164;50.784;6.496;2024-03-23T11:16:16;1.67;;;1.60;;
351;SDS011;164;50.784;6.496;2024-03-23T11:18:44;2.63;;;1.95;;
351;SDS011;164;50.784;6.496;2024-03-23T11:21:11;2.13;;;1.55;;
351;SDS011;164;50.784;6.496;2024-03-23T11:24:12;4.15;;;2.25;;
351;SDS011;164;50.784;6.496;2024-03-23T11:26:38;2.38;;;1.75;;
351;SDS011;164;50.784;6.496;2024-03-23T11:29:10;1.80;;;1.63;;
351;SDS011;164;50.784;6.496;2024-03-23T11:31:36;2.25;;;1.70;;
351;SDS011;164;50.784;6.496;2024-03-23T11:34:04;2.40;;;1.27;;
351;SDS011;164;50.784;6.496;2024-03-23T11:36:30;3.88;;;1.40;;
351;SDS011;164;50.784;6.496;2024-03-23T11:38:57;1.60;;;1.20;;
351;SDS011;164;50.784;6.496;2024-03-23T11:41:23;2.08;;;1.80;;
351;SDS011;164;50.784;6.496;2024-03-23T11:43:51;1.50;;;1.40;;
351;SDS011;164;50.784;6.496;2024-03-23T11:46:23;1.40;;;0.88;;
351;SDS011;164;50.784;6.496;2024-03-23T11:48:50;1.10;;;0.88;;
351;SDS011;164;50.784;6.496;2024-03-23T11:51:16;1.40;;;0.82;;
351;SDS011;164;50.784;6.496;2024-03-23T11:53:44;5.45;;;1.42;;
351;SDS011;164;50.784;6.496;2024-03-23T11:56:10;1.58;;;1.10;;
351;SDS011;164;50.784;6.496;2024-03-23T11:58:37;1.35;;;1.23;;
351;SDS011;164;50.784;6.496;2024-03-23T12:01:03;2.15;;;1.60;;
351;SDS011;164;50.784;6.496;2024-03-23T12:03:32;3.00;;;0.93;;
351;SDS011;164;50.784;6.496;2024-03-23T12:05:59;2.45;;;1.52;;
351;SDS011;164;50.784;6.496;2024-03-23T12:08:29;1.38;;;0.82;;
351;SDS011;164;50.784;6.496;2024-03-23T12:11:04;1.70;;;0.90;;
351;SDS011;164;50.784;6.496;2024-03-23T12:13:32;0.90;;;0.70;;
351;SDS011;164;50.784;6.496;2024-03-23T12:16:08;1.98;;;0.90;;
351;SDS011;164;50.784;6.496;2024-03-23T12:18:37;1.55;;;1.17;;
351;SDS011;164;50.784;6.496;2024-03-23T12:21:04;1.27;;;1.10;;
351;SDS011;164;50.784;6.496;2024-03-23T12:23:32;0.93;;;0.90;;
351;SDS011;164;50.784;6.496;2024-03-23T12:25:58;2.15;;;0.70;;
351;SDS011;164;50.784;6.496;2024-03-23T12:28:25;0.80;;;0.57;;
351;SDS011;164;50.784;6.496;2024-03-23T12:30:52;1.05;;;0.82;;
351;SDS011;164;50.784;6.496;2024-03-23T12:33:19;0.90;;;0.55;;
351;SDS011;164;50.784;6.496;2024-03-23T12:35:47;0.65;;;0.50;;
351;SDS011;164;50.784;6.496;2024-03-23T12:38:14;1.98;;;1.05;;
351;SDS011;164;50.784;6.496;2024-03-23T12:40:41;2.50;;;1.00;;
351;SDS011;164;50.784;6.496;2024-03-23T12:43:08;1.70;;;0.80;;
351;SDS011;164;50.784;6.496;2024-03-23T12:45:34;1.52;;;1.00;;
351;SDS011;164;50.784;6.496;2024-03-23T12:48:01;0.73;;;0.70;;
351;SDS011;164;50.784;6.496;2024-03-23T12:50:28;1.15;;;1.05;;
351;SDS011;164;50.784;6.496;2024-03-23T12:52:56;0.85;;;0.82;;
351;SDS011;164;50.784;6.496;2024-03-23T12:55:23;1.05;;;0.90;;
351;SDS011;164;50.784;6.496;2024-03-23T12:57:50;1.58;;;0.90;;
351;SDS011;164;50.784;6.496;2024-03-23T13:00:17;2.45;;;0.75;;
351;SDS011;164;50.784;6.496;2024-03-23T13:02:55;0.88;;;0.80;;
351;SDS011;164;50.784;6.496;2024-03-23T13:05:22;0.90;;;0.80;;
351;SDS011;164;50.784;6.496;2024-03-23T13:07:50;1.25;;;1.10;;
351;SDS011;164;50.784;6.496;2024-03-23T13:10:17;2.00;;;0.90;;
351;SDS011;164;50.784;6.496;2024-03-23T13:12:45;1.40;;;0.70;;
351;SDS011;164;50.784;6.496;2024-03-23T13:15:11;3.10;;;1.55;;
351;SDS011;164;50.784;6.496;2024-03-23T13:17:41;0.93;;;0.80;;
351;SDS011;164;50.784;6.496;2024-03-23T13:20:08;2.47;;;1.45;;
351;SDS011;164;50.784;6.496;2024-03-23T13:22:39;2.00;;;0.90;;
351;SDS011;164;50.784;6.496;2024-03-23T13:25:05;1.73;;;1.50;;
351;SDS011;164;50.784;6.496;2024-03-23T13:27:34;1.35;;;0.85;;
351;SDS011;164;50.784;6.496;2024-03-23T13:30:00;1.73;;;1.70;;
351;SDS011;164;50.784;6.496;2024-03-23T13:32:29;3.25;;;0.85;;
351;SDS011;164;50.784;6.496;2024-03-23T13:34:55;1.92;;;1.13;;
351;SDS011;164;50.784;6.496;2024-03-23T13:37:22;2.15;;;0.95;;
351;SDS011;164;50.784;6.496;2024-03-23T13:39:48;2.30;;;1.13;;
351;SDS011;164;50.784;6.496;2024-03-23T13:42:16;3.10;;;1.27;;
351;SDS011;164;50.784;6.496;2024-03-23T13:44:44;1.00;;;0.90;;
351;SDS011;164;50.784;6.496;2024-03-23T13:47:11;0.90;;;0.70;;
351;SDS011;164;50.784;6.496;2024-03-23T13:49:37;1.80;;;1.75;;
351;SDS011;164;50.784;6.496;2024-03-23T13:52:05;3.80;;;1.92;;
351;SDS011;164;50.784;6.496;2024-03-23T13:54:32;3.08;;;1.90;;
351;SDS011;164;50.784;6.496;2024-03-23T13:57:00;1.20;;;1.20;;
351;SDS011;164;50.784;6.496;2024-03-23T13:59:26;1.58;;;1.23;;
351;SDS011;164;50.784;6.496;2024-03-23T14:01:55;4.43;;;1.70;;
351;SDS011;164;50.784;6.496;2024-03-23T14:04:22;2.80;;;1.45;;
351;SDS011;164;50.784;6.496;2024-03-23T14:06:50;3.15;;;1.20;;
351;SDS011;164;50.784;6.496;2024-03-23T14:09:16;0.93;;;0.73;;
351;SDS011;164;50.784;6.496;2024-03-23T14:11:46;0.80;;;0.47;;
351;SDS011;164;50.784;6.496;2024-03-23T14:14:12;1.20;;;0.57;;
351;SDS011;164;50.784;6.496;2024-03-23T14:16:41;0.90;;;0.80;;
351;SDS011;164;50.784;6.496;2024-03-23T14:19:09;1.73;;;0.70;;
351;SDS011;164;50.784;6.496;2024-03-23T14:21:36;2.00;;;1.88;;
351;SDS011;164;50.784;6.496;2024-03-23T14:24:03;2.35;;;1.30;;
351;SDS011;164;50.784;6.496;2024-03-23T14:26:31;1.15;;;0.75;;
351;SDS011;164;50.784;6.496;2024-03-23T14:28:57;4.00;;;0.70;;
351;SDS011;164;50.784;6.496;2024-03-23T14:31:24;0.70;;;0.63;;
351;SDS011;164;50.784;6.496;2024-03-23T14:33:50;0.60;;;0.40;;
351;SDS011;164;50.784;6.496;2024-03-23T14:36:19;1.58;;;1.00;;
351;SDS011;164;50.784;6.496;2024-03-23T14:38:47;1.00;;;0.75;;
351;SDS011;164;50.784;6.496;2024-03-23T14:41:14;0.50;;;0.30;;
351;SDS011;164;50.784;6.496;2024-03-23T14:43:40;0.80;;;0.30;;
351;SDS011;164;50.784;6.496;2024-03-23T14:46:09;1.60;;;0.47;;
351;SDS011;164;50.784;6.496;2024-03-23T14:48:35;0.85;;;0.57;;
351;SDS011;164;50.784;6.496;2024-03-23T14:51:03;2.05;;;0.60;;
351;SDS011;164;50.784;6.496;2024-03-23T14:53:31;0.70;;;0.43;;
351;SDS011;164;50.784;6.496;2024-03-23T14:55:59;0.50;;;0.40;;
351;SDS011;164;50.784;6.496;2024-03-23T14:58:26;1.70;;;0.50;;
351;SDS011;164;50.784;6.496;2024-03-23T15:00:57;1.15;;;0.60;;
351;SDS011;164;50.784;6.496;2024-03-23T15:03:25;1.48;;;0.70;;
351;SDS011;164;50.784;6.496;2024-03-23T15:05:56;0.50;;;0.35;;
351;SDS011;164;50.784;6.496;2024-03-23T15:08:22;1.05;;;0.75;;
351;SDS011;164;50.784;6.496;2024-03-23T15:10:51;0.75;;;0.57;;
351;SDS011;164;50.784;6.496;2024-03-23T15:13:17;1.48;;;0.90;;
351;SDS011;164;50.784;6.496;2024-03-23T15:15:46;1.17;;;0.73;;
351;SDS011;164;50.784;6.496;2024-03-23T15:18:13;1.88;;;0.98;;
351;SDS011;164;50.784;6.496;2024-03-23T15:20:41;0.90;;;0.80;;
351;SDS011;164;50.784;6.496;2024-03-23T15:23:07;2.45;;;1.00;;
351;SDS011;164;50.784;6.496;2024-03-23T15:25:34;4.90;;;1.30;;
351;SDS011;164;50.784;6.496;2024-03-23T15:28:02;2.42;;;1.00;;
351;SDS011;164;50.784;6.496;2024-03-23T15:30:29;1.45;;;1.00;;
351;SDS011;164;50.784;6.496;2024-03-23T15:32:56;2.17;;;0.90;;
351;SDS011;164;50.784;6.496;2024-03-23T15:35:23;1.77;;;1.38;;
351;SDS011;164;50.784;6.496;2024-03-23T15:37:49;1.73;;;1.02;;
351;SDS011;164;50.784;6.496;2024-03-23T15:40:17;1.42;;;1.15;;
351;SDS011;164;50.784;6.496;2024-03-23T15:42:43;2.08;;;1.77;;
351;SDS011;164;50.784;6.496;2024-03-23T15:45:12;2.13;;;1.45;;
351;SDS011;164;50.784;6.496;2024-03-23T15:47:38;2.35;;;1.98;;
351;SDS011;164;50.784;6.496;2024-03-23T15:50:06;1.00;;;0.90;;
351;SDS011;164;50.784;6.496;2024-03-23T15:52:33;2.40;;;1.60;;
351;SDS011;164;50.784;6.496;2024-03-23T15:55:01;1.50;;;1.27;;
351;SDS011;164;50.784;6.496;2024-03-23T15:57:30;0.60;;;0.60;;
351;SDS011;164;50.784;6.496;2024-03-23T15:59:57;0.73;;;0.65;;
351;SDS011;164;50.784;6.496;2024-03-23T16:02:25;1.90;;;0.65;;
351;SDS011;164;50.784;6.496;2024-03-23T16:04:52;0.68;;;0.55;;
351;SDS011;164;50.784;6.496;2024-03-23T16:07:19;2.33;;;0.77;;
351;SDS011;164;50.784;6.496;2024-03-23T16:09:46;0.85;;;0.70;;
351;SDS011;164;50.784;6.496;2024-03-23T16:12:12;1.40;;;0.55;;
351;SDS011;164;50.784;6.496;2024-03-23T16:17:51;1.30;;;1.20;;
351;SDS011;164;50.784;6.496;2024-03-23T16:20:18;2.50;;;1.20;;
351;SDS011;164;50.784;6.496;2024-03-23T16:22:46;2.65;;;1.27;;
351;SDS011;164;50.784;6.496;2024-03-23T16:25:18;2.97;;;1.88;;
351;SDS011;164;50.784;6.496;2024-03-23T16:27:44;1.25;;;1.05;;
351;SDS011;164;50.784;6.496;2024-03-23T16:30:12;1.58;;;0.70;;
351;SDS011;164;50.784;6.496;2024-03-23T16:32:38;1.55;;;1.05;;
351;SDS011;164;50.784;6.496;2024-03-23T16:35:07;1.35;;;1.25;;
351;SDS011;164;50.784;6.496;2024-03-23T16:37:34;2.80;;;0.60;;
351;SDS011;164;50.784;6.496;2024-03-23T16:40:02;0.98;;;0.60;;
351;SDS011;164;50.784;6.496;2024-03-23T16:42:28;0.50;;;0.47;;
351;SDS011;164;50.784;6.496;2024-03-23T16:44:56;1.50;;;0.85;;
351;SDS011;164;50.784;6.496;2024-03-23T16:47:22;0.95;;;0.55;;